Asukamaru — JG5536 — position and weather

sailwx.info

Track history (hours):
 
Tides and Currents Weather Stations Pressure Air Temp Water Temp Dewpoint Dewpoint Depression Visibility Wind Speed Wind Dir Waves Ship Positions

Asukamaru

Last reported at 2014-Sep-20 23:07 UTC. Time now 2014-Sep-22 00:14 UTC.
Position N 35°35' E 139°47'.

Length 31 m; draft 3 m.

Type: Tug. MMSI: 431001145.

Date/timePositionNaut miles runAvg speedWind from/ knotsBaromVisibWave heightAir tempDewpointWater temp
2014-Sep-20 23:07N 35°35' E 139°47'1 1.1
2014-Sep-20 22:31N 35°35' E 139°47'2 1.6
2014-Sep-20 21:33N 35°34' E 139°49'4 0.3
2014-Sep-20 08:13N 35°37' E 139°46'1 0.1
2014-Sep-19 22:33N 35°37' E 139°46'4 3.5
2014-Sep-19 21:22N 35°34' E 139°50'4 4.7
2014-Sep-19 20:27N 35°37' E 139°46'1 0.1
2014-Sep-19 05:33N 35°38' E 139°45'0 0.0
2014-Sep-19 04:33N 35°38' E 139°45'0 0.0
2014-Sep-19 03:33N 35°38' E 139°45'0 0.0
2014-Sep-19 02:33N 35°38' E 139°45'0 0.0
2014-Sep-19 01:33N 35°38' E 139°45'1 1.3
2014-Sep-19 00:33N 35°37' E 139°46'1 0.9
2014-Sep-18 23:33N 35°38' E 139°46'0 0.4
2014-Sep-18 22:33N 35°38' E 139°45'0 0.0
2014-Sep-18 21:33N 35°38' E 139°45'0 0.0
2014-Sep-18 20:33N 35°38' E 139°45'0 0.0
2014-Sep-18 19:33N 35°38' E 139°45'0 0.0
2014-Sep-18 18:33N 35°38' E 139°45'0 0.0
2014-Sep-18 17:33N 35°38' E 139°45'0 0.0
2014-Sep-18 16:33N 35°38' E 139°45'0 0.0
2014-Sep-18 15:33N 35°38' E 139°45'0 0.0
2014-Sep-18 14:33N 35°38' E 139°45'0 0.0
2014-Sep-18 13:33N 35°38' E 139°45'0 0.0
2014-Sep-18 12:33N 35°38' E 139°45'0 0.0
2014-Sep-18 11:33N 35°38' E 139°45'0 0.0
2014-Sep-18 10:33N 35°38' E 139°45'0 0.0
2014-Sep-18 09:33N 35°38' E 139°45'2 1.8
2014-Sep-18 08:33N 35°37' E 139°46'2 1.8
2014-Sep-18 07:33N 35°38' E 139°45'0 0.0
2014-Sep-18 06:33N 35°38' E 139°45'0 0.0
2014-Sep-18 05:33N 35°38' E 139°45'0 0.0
2014-Sep-18 04:33N 35°38' E 139°45'0 0.0
2014-Sep-18 03:33N 35°38' E 139°45'0 0.0
2014-Sep-18 02:33N 35°38' E 139°45'0 0.0
2014-Sep-18 01:33N 35°38' E 139°45'0 0.0
2014-Sep-18 00:33N 35°38' E 139°45'0 0.0
2014-Sep-17 23:33N 35°38' E 139°45'0 0.0
2014-Sep-17 22:33N 35°38' E 139°45'0 0.0
2014-Sep-17 21:33N 35°38' E 139°45'0 0.0
2014-Sep-17 20:33N 35°38' E 139°45'0 0.0
2014-Sep-17 19:33N 35°38' E 139°45'0 0.0
2014-Sep-17 18:33N 35°38' E 139°45'0 0.0
2014-Sep-17 17:33N 35°38' E 139°45'0 0.0
2014-Sep-17 16:33N 35°38' E 139°45'0 0.0
2014-Sep-17 15:33N 35°38' E 139°45'0 0.0
2014-Sep-17 14:33N 35°38' E 139°45'0 0.0
2014-Sep-17 13:33N 35°38' E 139°45'0 0.0
2014-Sep-17 12:33N 35°38' E 139°45'0 0.0
2014-Sep-17 11:33N 35°38' E 139°45'0 0.0
2014-Sep-17 10:33N 35°38' E 139°45'0 0.0
2014-Sep-17 09:33N 35°38' E 139°45'0 0.0
2014-Sep-17 08:33N 35°38' E 139°45'0 0.0
2014-Sep-17 07:33N 35°38' E 139°45'0 0.0
2014-Sep-17 06:33N 35°38' E 139°45'0 0.0
2014-Sep-17 05:33N 35°38' E 139°45'0 0.0
2014-Sep-17 04:33N 35°38' E 139°45'0 0.0
2014-Sep-17 03:33N 35°38' E 139°45'4 4.0
2014-Sep-17 02:33N 35°35' E 139°48'4 4.0
2014-Sep-17 01:32N 35°38' E 139°45'0 0.0
2014-Sep-17 00:33N 35°38' E 139°45'0 0.0
2014-Sep-16 23:33N 35°38' E 139°45'0 0.0
2014-Sep-16 22:33N 35°38' E 139°45'0 0.0
2014-Sep-16 21:33N 35°38' E 139°45'0 0.0
2014-Sep-16 20:33N 35°38' E 139°45'0 0.0
2014-Sep-16 19:33N 35°38' E 139°45'0 0.0
2014-Sep-16 18:33N 35°38' E 139°45'0 0.0
2014-Sep-16 17:33N 35°38' E 139°45'0 0.0
2014-Sep-16 16:33N 35°38' E 139°45'0 0.0
2014-Sep-16 15:33N 35°38' E 139°45'0 0.0
2014-Sep-16 14:33N 35°38' E 139°45'0 0.0
2014-Sep-16 13:33N 35°38' E 139°45'0 0.0
2014-Sep-16 12:33N 35°38' E 139°45'3 2.9
2014-Sep-16 11:33N 35°35' E 139°47'0 0.1
2014-Sep-16 10:33N 35°36' E 139°47'2 1.9
2014-Sep-16 09:33N 35°37' E 139°46'4 3.6
2014-Sep-16 08:33N 35°35' E 139°49'2 2.5
2014-Sep-16 07:33N 35°36' E 139°46'2 2.1
2014-Sep-16 06:33N 35°38' E 139°45'0 0.0
2014-Sep-16 05:33N 35°38' E 139°45'0 0.0
2014-Sep-16 04:33N 35°38' E 139°45'1 1.3
2014-Sep-16 03:33N 35°37' E 139°46'1 1.3
2014-Sep-16 02:33N 35°38' E 139°46'0 0.0
2014-Sep-16 01:33N 35°38' E 139°46'0 0.0
2014-Sep-16 00:33N 35°38' E 139°45'0 0.0
2014-Sep-15 23:33N 35°38' E 139°45'0 0.0
2014-Sep-15 22:33N 35°38' E 139°45'0 0.0
2014-Sep-15 21:33N 35°38' E 139°45'0 0.0
2014-Sep-15 20:33N 35°38' E 139°45'0 0.0
2014-Sep-15 19:33N 35°38' E 139°45'0 0.0
2014-Sep-15 18:33N 35°38' E 139°45'0 0.0
2014-Sep-15 17:33N 35°38' E 139°45'0 0.0
2014-Sep-15 16:33N 35°38' E 139°45'0 0.0
2014-Sep-15 15:33N 35°38' E 139°45'0 0.0
2014-Sep-15 14:33N 35°38' E 139°45'0 0.0
2014-Sep-15 13:33N 35°38' E 139°45'0 0.0
2014-Sep-15 12:33N 35°38' E 139°45'0 0.0
2014-Sep-15 11:33N 35°38' E 139°45'0 0.0
2014-Sep-15 10:33N 35°38' E 139°45'0 0.0
2014-Sep-15 09:33N 35°38' E 139°45'0 0.0
2014-Sep-15 08:33N 35°38' E 139°45'0 0.0
2014-Sep-15 07:33N 35°38' E 139°45'0 0.0
2014-Sep-15 06:33N 35°38' E 139°45'0 0.0
2014-Sep-15 05:33N 35°38' E 139°45'0 0.0
2014-Sep-15 04:33N 35°38' E 139°45'0 0.0
2014-Sep-15 03:33N 35°38' E 139°45'0 0.0
2014-Sep-15 02:33N 35°38' E 139°45'0 0.0
2014-Sep-15 01:33N 35°38' E 139°45'0 0.0
2014-Sep-15 00:33N 35°38' E 139°45'0 0.0
2014-Sep-14 23:33N 35°38' E 139°45'0 0.0
2014-Sep-14 22:33N 35°38' E 139°45'0 0.0
2014-Sep-14 21:33N 35°38' E 139°45'0 0.0
2014-Sep-14 20:33N 35°38' E 139°45'0 0.0
2014-Sep-14 19:33N 35°38' E 139°45'0 0.0
2014-Sep-14 18:33N 35°38' E 139°45'0 0.0
2014-Sep-14 17:33N 35°38' E 139°46'0 0.0
2014-Sep-14 16:33N 35°38' E 139°45'0 0.0
2014-Sep-14 15:33N 35°38' E 139°45'0 0.0
2014-Sep-14 14:33N 35°38' E 139°45'0 0.0
2014-Sep-14 13:33N 35°38' E 139°45'0 0.0
2014-Sep-14 12:33N 35°38' E 139°45'0 0.0
2014-Sep-14 11:33N 35°38' E 139°45'0 0.0
2014-Sep-14 10:33N 35°38' E 139°45'0 0.0
2014-Sep-14 09:33N 35°38' E 139°45'0 0.0
2014-Sep-14 08:33N 35°38' E 139°45'0 0.0
2014-Sep-14 07:33N 35°38' E 139°45'0 0.0
2014-Sep-14 06:33N 35°38' E 139°45'0 0.0
2014-Sep-14 05:33N 35°38' E 139°45'0 0.0
2014-Sep-14 04:33N 35°38' E 139°45'0 0.0
2014-Sep-14 03:33N 35°38' E 139°45'0 0.0
2014-Sep-14 02:33N 35°38' E 139°45'2 1.8
2014-Sep-14 01:33N 35°37' E 139°46'3 0.8
2014-Sep-13 21:33N 35°34' E 139°49'3 2.6
2014-Sep-13 20:33N 35°36' E 139°47'2 2.4
2014-Sep-13 19:33N 35°38' E 139°45'0 0.0
2014-Sep-13 18:33N 35°38' E 139°45'0 0.0
2014-Sep-13 17:33N 35°38' E 139°45'0 0.0
2014-Sep-13 16:33N 35°38' E 139°45'0 0.0
2014-Sep-13 15:33N 35°38' E 139°45'0 0.0
2014-Sep-13 14:33N 35°38' E 139°45'0 0.0
2014-Sep-13 13:33N 35°38' E 139°45'0 0.0
2014-Sep-13 12:33N 35°38' E 139°45'0 0.0
2014-Sep-13 11:33N 35°38' E 139°45'0 0.0
2014-Sep-13 10:33N 35°38' E 139°45'0 0.0
2014-Sep-13 09:33N 35°38' E 139°45'0 0.0
2014-Sep-13 08:33N 35°38' E 139°45'0 0.0
2014-Sep-13 07:33N 35°38' E 139°45'0 0.0
2014-Sep-13 06:33N 35°38' E 139°45'0 0.0
2014-Sep-13 05:33N 35°38' E 139°45'0 0.0
2014-Sep-13 04:33N 35°38' E 139°46'0 0.0
2014-Sep-13 03:33N 35°38' E 139°45'0 0.0
2014-Sep-13 02:33N 35°38' E 139°45'0 0.0
2014-Sep-13 01:33N 35°38' E 139°45'0 0.0
2014-Sep-13 00:33N 35°38' E 139°45'0 0.0
2014-Sep-12 23:33N 35°38' E 139°45'2 2.1
2014-Sep-12 22:33N 35°36' E 139°47'3 2.9
2014-Sep-12 21:33N 35°34' E 139°49'4 3.8
2014-Sep-12 20:33N 35°37' E 139°46'1 1.4
2014-Sep-12 19:33N 35°38' E 139°45'0 0.0
2014-Sep-12 18:33N 35°38' E 139°45'0 0.0
2014-Sep-12 17:33N 35°38' E 139°45'0 0.0
2014-Sep-12 16:33N 35°38' E 139°45'0 0.0
2014-Sep-12 15:33N 35°38' E 139°45'0 0.0
2014-Sep-12 14:33N 35°38' E 139°45'0 0.0
2014-Sep-12 13:33N 35°38' E 139°45'0 0.0
2014-Sep-12 12:33N 35°38' E 139°45'0 0.0
2014-Sep-12 11:33N 35°38' E 139°45'0 0.0
2014-Sep-12 10:33N 35°38' E 139°45'0 0.0
2014-Sep-12 09:33N 35°38' E 139°45'0 0.0
2014-Sep-12 08:33N 35°38' E 139°45'0 0.0
2014-Sep-12 07:33N 35°38' E 139°45'0 0.0
2014-Sep-12 06:33N 35°38' E 139°45'0 0.0
2014-Sep-12 05:33N 35°38' E 139°45'0 0.0
2014-Sep-12 04:33N 35°38' E 139°45'0 0.0
2014-Sep-12 03:33N 35°38' E 139°45'0 0.0
2014-Sep-12 02:33N 35°38' E 139°45'0 0.0
2014-Sep-12 01:33N 35°38' E 139°45'0 0.0
2014-Sep-12 00:33N 35°38' E 139°45'0 0.0
2014-Sep-11 23:33N 35°38' E 139°45'3 3.1
2014-Sep-11 22:33N 35°36' E 139°47'1 0.6
2014-Sep-11 21:33N 35°35' E 139°47'2 1.5
2014-Sep-11 20:33N 35°37' E 139°46'1 1.4
2014-Sep-11 19:33N 35°38' E 139°45'0 0.0
2014-Sep-11 18:33N 35°38' E 139°45'0 0.0
2014-Sep-11 17:33N 35°38' E 139°45'0 0.0
2014-Sep-11 16:33N 35°38' E 139°45'0 0.0
2014-Sep-11 15:33N 35°38' E 139°45'0 0.0
2014-Sep-11 14:33N 35°38' E 139°45'0 0.0
2014-Sep-11 13:33N 35°38' E 139°45'0 0.0
2014-Sep-11 12:33N 35°38' E 139°45'0 0.0
2014-Sep-11 11:33N 35°38' E 139°45'0 0.0
2014-Sep-11 10:33N 35°38' E 139°45'0 0.0
2014-Sep-11 09:33N 35°38' E 139°45'0 0.0
2014-Sep-11 08:33N 35°38' E 139°45'4 4.0
2014-Sep-11 07:33N 35°35' E 139°48'4 4.0
2014-Sep-11 06:33N 35°38' E 139°45'0 0.0
2014-Sep-11 05:33N 35°38' E 139°45'0 0.0
2014-Sep-11 04:33N 35°38' E 139°45'0 0.0
2014-Sep-11 03:33N 35°38' E 139°45'0 0.0
2014-Sep-11 02:33N 35°38' E 139°45'0 0.0
2014-Sep-11 01:33N 35°38' E 139°45'0 0.0
2014-Sep-11 00:33N 35°38' E 139°45'0 0.0
2014-Sep-10 23:33N 35°38' E 139°45'  
Track history (hours):
 
Tides and Currents Weather Stations Pressure Air Temp Water Temp Dewpoint Dewpoint Depression Visibility Wind Speed Wind Dir Waves Ship Positions

Asukamaru

Last reported at 2014-Sep-20 23:07 UTC. Time now 2014-Sep-22 00:14 UTC.
Position N 35°35' E 139°47'.

Length 31 m; draft 3 m.

Type: Tug. MMSI: 431001145.

Date/timePositionNaut miles runAvg speedWind from/ knotsBaromVisibWave heightAir tempDewpointWater temp
2014-Sep-20 23:07N 35°35' E 139°47'1 1.1
2014-Sep-20 22:31N 35°35' E 139°47'2 1.6
2014-Sep-20 21:33N 35°34' E 139°49'4 0.3
2014-Sep-20 08:13N 35°37' E 139°46'1 0.1
2014-Sep-19 22:33N 35°37' E 139°46'4 3.5
2014-Sep-19 21:22N 35°34' E 139°50'4 4.7
2014-Sep-19 20:27N 35°37' E 139°46'1 0.1
2014-Sep-19 05:33N 35°38' E 139°45'0 0.0
2014-Sep-19 04:33N 35°38' E 139°45'0 0.0
2014-Sep-19 03:33N 35°38' E 139°45'0 0.0
2014-Sep-19 02:33N 35°38' E 139°45'0 0.0
2014-Sep-19 01:33N 35°38' E 139°45'1 1.3
2014-Sep-19 00:33N 35°37' E 139°46'1 0.9
2014-Sep-18 23:33N 35°38' E 139°46'0 0.4
2014-Sep-18 22:33N 35°38' E 139°45'0 0.0
2014-Sep-18 21:33N 35°38' E 139°45'0 0.0
2014-Sep-18 20:33N 35°38' E 139°45'0 0.0
2014-Sep-18 19:33N 35°38' E 139°45'0 0.0
2014-Sep-18 18:33N 35°38' E 139°45'0 0.0
2014-Sep-18 17:33N 35°38' E 139°45'0 0.0
2014-Sep-18 16:33N 35°38' E 139°45'0 0.0
2014-Sep-18 15:33N 35°38' E 139°45'0 0.0
2014-Sep-18 14:33N 35°38' E 139°45'0 0.0
2014-Sep-18 13:33N 35°38' E 139°45'0 0.0
2014-Sep-18 12:33N 35°38' E 139°45'0 0.0
2014-Sep-18 11:33N 35°38' E 139°45'0 0.0
2014-Sep-18 10:33N 35°38' E 139°45'0 0.0
2014-Sep-18 09:33N 35°38' E 139°45'2 1.8
2014-Sep-18 08:33N 35°37' E 139°46'2 1.8
2014-Sep-18 07:33N 35°38' E 139°45'0 0.0
2014-Sep-18 06:33N 35°38' E 139°45'0 0.0
2014-Sep-18 05:33N 35°38' E 139°45'0 0.0
2014-Sep-18 04:33N 35°38' E 139°45'0 0.0
2014-Sep-18 03:33N 35°38' E 139°45'0 0.0
2014-Sep-18 02:33N 35°38' E 139°45'0 0.0
2014-Sep-18 01:33N 35°38' E 139°45'0 0.0
2014-Sep-18 00:33N 35°38' E 139°45'0 0.0
2014-Sep-17 23:33N 35°38' E 139°45'0 0.0
2014-Sep-17 22:33N 35°38' E 139°45'0 0.0
2014-Sep-17 21:33N 35°38' E 139°45'0 0.0
2014-Sep-17 20:33N 35°38' E 139°45'0 0.0
2014-Sep-17 19:33N 35°38' E 139°45'0 0.0
2014-Sep-17 18:33N 35°38' E 139°45'0 0.0
2014-Sep-17 17:33N 35°38' E 139°45'0 0.0
2014-Sep-17 16:33N 35°38' E 139°45'0 0.0
2014-Sep-17 15:33N 35°38' E 139°45'0 0.0
2014-Sep-17 14:33N 35°38' E 139°45'0 0.0
2014-Sep-17 13:33N 35°38' E 139°45'0 0.0
2014-Sep-17 12:33N 35°38' E 139°45'0 0.0
2014-Sep-17 11:33N 35°38' E 139°45'0 0.0
2014-Sep-17 10:33N 35°38' E 139°45'0 0.0
2014-Sep-17 09:33N 35°38' E 139°45'0 0.0
2014-Sep-17 08:33N 35°38' E 139°45'0 0.0
2014-Sep-17 07:33N 35°38' E 139°45'0 0.0
2014-Sep-17 06:33N 35°38' E 139°45'0 0.0
2014-Sep-17 05:33N 35°38' E 139°45'0 0.0
2014-Sep-17 04:33N 35°38' E 139°45'0 0.0
2014-Sep-17 03:33N 35°38' E 139°45'4 4.0
2014-Sep-17 02:33N 35°35' E 139°48'4 4.0
2014-Sep-17 01:32N 35°38' E 139°45'0 0.0
2014-Sep-17 00:33N 35°38' E 139°45'0 0.0
2014-Sep-16 23:33N 35°38' E 139°45'0 0.0
2014-Sep-16 22:33N 35°38' E 139°45'0 0.0
2014-Sep-16 21:33N 35°38' E 139°45'0 0.0
2014-Sep-16 20:33N 35°38' E 139°45'0 0.0
2014-Sep-16 19:33N 35°38' E 139°45'0 0.0
2014-Sep-16 18:33N 35°38' E 139°45'0 0.0
2014-Sep-16 17:33N 35°38' E 139°45'0 0.0
2014-Sep-16 16:33N 35°38' E 139°45'0 0.0
2014-Sep-16 15:33N 35°38' E 139°45'0 0.0
2014-Sep-16 14:33N 35°38' E 139°45'0 0.0
2014-Sep-16 13:33N 35°38' E 139°45'0 0.0
2014-Sep-16 12:33N 35°38' E 139°45'3 2.9
2014-Sep-16 11:33N 35°35' E 139°47'0 0.1
2014-Sep-16 10:33N 35°36' E 139°47'2 1.9
2014-Sep-16 09:33N 35°37' E 139°46'4 3.6
2014-Sep-16 08:33N 35°35' E 139°49'2 2.5
2014-Sep-16 07:33N 35°36' E 139°46'2 2.1
2014-Sep-16 06:33N 35°38' E 139°45'0 0.0
2014-Sep-16 05:33N 35°38' E 139°45'0 0.0
2014-Sep-16 04:33N 35°38' E 139°45'1 1.3
2014-Sep-16 03:33N 35°37' E 139°46'1 1.3
2014-Sep-16 02:33N 35°38' E 139°46'0 0.0
2014-Sep-16 01:33N 35°38' E 139°46'0 0.0
2014-Sep-16 00:33N 35°38' E 139°45'0 0.0
2014-Sep-15 23:33N 35°38' E 139°45'0 0.0
2014-Sep-15 22:33N 35°38' E 139°45'0 0.0
2014-Sep-15 21:33N 35°38' E 139°45'0 0.0
2014-Sep-15 20:33N 35°38' E 139°45'0 0.0
2014-Sep-15 19:33N 35°38' E 139°45'0 0.0
2014-Sep-15 18:33N 35°38' E 139°45'0 0.0
2014-Sep-15 17:33N 35°38' E 139°45'0 0.0
2014-Sep-15 16:33N 35°38' E 139°45'0 0.0
2014-Sep-15 15:33N 35°38' E 139°45'0 0.0
2014-Sep-15 14:33N 35°38' E 139°45'0 0.0
2014-Sep-15 13:33N 35°38' E 139°45'0 0.0
2014-Sep-15 12:33N 35°38' E 139°45'0 0.0
2014-Sep-15 11:33N 35°38' E 139°45'0 0.0
2014-Sep-15 10:33N 35°38' E 139°45'0 0.0
2014-Sep-15 09:33N 35°38' E 139°45'0 0.0
2014-Sep-15 08:33N 35°38' E 139°45'0 0.0
2014-Sep-15 07:33N 35°38' E 139°45'0 0.0
2014-Sep-15 06:33N 35°38' E 139°45'0 0.0
2014-Sep-15 05:33N 35°38' E 139°45'0 0.0
2014-Sep-15 04:33N 35°38' E 139°45'0 0.0
2014-Sep-15 03:33N 35°38' E 139°45'0 0.0
2014-Sep-15 02:33N 35°38' E 139°45'0 0.0
2014-Sep-15 01:33N 35°38' E 139°45'0 0.0
2014-Sep-15 00:33N 35°38' E 139°45'0 0.0
2014-Sep-14 23:33N 35°38' E 139°45'0 0.0
2014-Sep-14 22:33N 35°38' E 139°45'0 0.0
2014-Sep-14 21:33N 35°38' E 139°45'0 0.0
2014-Sep-14 20:33N 35°38' E 139°45'0 0.0
2014-Sep-14 19:33N 35°38' E 139°45'0 0.0
2014-Sep-14 18:33N 35°38' E 139°45'0 0.0
2014-Sep-14 17:33N 35°38' E 139°46'0 0.0
2014-Sep-14 16:33N 35°38' E 139°45'0 0.0
2014-Sep-14 15:33N 35°38' E 139°45'0 0.0
2014-Sep-14 14:33N 35°38' E 139°45'0 0.0
2014-Sep-14 13:33N 35°38' E 139°45'0 0.0
2014-Sep-14 12:33N 35°38' E 139°45'0 0.0
2014-Sep-14 11:33N 35°38' E 139°45'0 0.0
2014-Sep-14 10:33N 35°38' E 139°45'0 0.0
2014-Sep-14 09:33N 35°38' E 139°45'0 0.0
2014-Sep-14 08:33N 35°38' E 139°45'0 0.0
2014-Sep-14 07:33N 35°38' E 139°45'0 0.0
2014-Sep-14 06:33N 35°38' E 139°45'0 0.0
2014-Sep-14 05:33N 35°38' E 139°45'0 0.0
2014-Sep-14 04:33N 35°38' E 139°45'0 0.0
2014-Sep-14 03:33N 35°38' E 139°45'0 0.0
2014-Sep-14 02:33N 35°38' E 139°45'2 1.8
2014-Sep-14 01:33N 35°37' E 139°46'3 0.8
2014-Sep-13 21:33N 35°34' E 139°49'3 2.6
2014-Sep-13 20:33N 35°36' E 139°47'2 2.4
2014-Sep-13 19:33N 35°38' E 139°45'0 0.0
2014-Sep-13 18:33N 35°38' E 139°45'0 0.0
2014-Sep-13 17:33N 35°38' E 139°45'0 0.0
2014-Sep-13 16:33N 35°38' E 139°45'0 0.0
2014-Sep-13 15:33N 35°38' E 139°45'0 0.0
2014-Sep-13 14:33N 35°38' E 139°45'0 0.0
2014-Sep-13 13:33N 35°38' E 139°45'0 0.0
2014-Sep-13 12:33N 35°38' E 139°45'0 0.0
2014-Sep-13 11:33N 35°38' E 139°45'0 0.0
2014-Sep-13 10:33N 35°38' E 139°45'0 0.0
2014-Sep-13 09:33N 35°38' E 139°45'0 0.0
2014-Sep-13 08:33N 35°38' E 139°45'0 0.0
2014-Sep-13 07:33N 35°38' E 139°45'0 0.0
2014-Sep-13 06:33N 35°38' E 139°45'0 0.0
2014-Sep-13 05:33N 35°38' E 139°45'0 0.0
2014-Sep-13 04:33N 35°38' E 139°46'0 0.0
2014-Sep-13 03:33N 35°38' E 139°45'0 0.0
2014-Sep-13 02:33N 35°38' E 139°45'0 0.0
2014-Sep-13 01:33N 35°38' E 139°45'0 0.0
2014-Sep-13 00:33N 35°38' E 139°45'0 0.0
2014-Sep-12 23:33N 35°38' E 139°45'2 2.1
2014-Sep-12 22:33N 35°36' E 139°47'3 2.9
2014-Sep-12 21:33N 35°34' E 139°49'4 3.8
2014-Sep-12 20:33N 35°37' E 139°46'1 1.4
2014-Sep-12 19:33N 35°38' E 139°45'0 0.0
2014-Sep-12 18:33N 35°38' E 139°45'0 0.0
2014-Sep-12 17:33N 35°38' E 139°45'0 0.0
2014-Sep-12 16:33N 35°38' E 139°45'0 0.0
2014-Sep-12 15:33N 35°38' E 139°45'0 0.0
2014-Sep-12 14:33N 35°38' E 139°45'0 0.0
2014-Sep-12 13:33N 35°38' E 139°45'0 0.0
2014-Sep-12 12:33N 35°38' E 139°45'0 0.0
2014-Sep-12 11:33N 35°38' E 139°45'0 0.0
2014-Sep-12 10:33N 35°38' E 139°45'0 0.0
2014-Sep-12 09:33N 35°38' E 139°45'0 0.0
2014-Sep-12 08:33N 35°38' E 139°45'0 0.0
2014-Sep-12 07:33N 35°38' E 139°45'0 0.0
2014-Sep-12 06:33N 35°38' E 139°45'0 0.0
2014-Sep-12 05:33N 35°38' E 139°45'0 0.0
2014-Sep-12 04:33N 35°38' E 139°45'0 0.0
2014-Sep-12 03:33N 35°38' E 139°45'0 0.0
2014-Sep-12 02:33N 35°38' E 139°45'0 0.0
2014-Sep-12 01:33N 35°38' E 139°45'0 0.0
2014-Sep-12 00:33N 35°38' E 139°45'0 0.0
2014-Sep-11 23:33N 35°38' E 139°45'3 3.1
2014-Sep-11 22:33N 35°36' E 139°47'1 0.6
2014-Sep-11 21:33N 35°35' E 139°47'2 1.5
2014-Sep-11 20:33N 35°37' E 139°46'1 1.4
2014-Sep-11 19:33N 35°38' E 139°45'0 0.0
2014-Sep-11 18:33N 35°38' E 139°45'0 0.0
2014-Sep-11 17:33N 35°38' E 139°45'0 0.0
2014-Sep-11 16:33N 35°38' E 139°45'0 0.0
2014-Sep-11 15:33N 35°38' E 139°45'0 0.0
2014-Sep-11 14:33N 35°38' E 139°45'0 0.0
2014-Sep-11 13:33N 35°38' E 139°45'0 0.0
2014-Sep-11 12:33N 35°38' E 139°45'0 0.0
2014-Sep-11 11:33N 35°38' E 139°45'0 0.0
2014-Sep-11 10:33N 35°38' E 139°45'0 0.0
2014-Sep-11 09:33N 35°38' E 139°45'0 0.0
2014-Sep-11 08:33N 35°38' E 139°45'4 4.0
2014-Sep-11 07:33N 35°35' E 139°48'4 4.0
2014-Sep-11 06:33N 35°38' E 139°45'0 0.0
2014-Sep-11 05:33N 35°38' E 139°45'0 0.0
2014-Sep-11 04:33N 35°38' E 139°45'0 0.0
2014-Sep-11 03:33N 35°38' E 139°45'0 0.0
2014-Sep-11 02:33N 35°38' E 139°45'0 0.0
2014-Sep-11 01:33N 35°38' E 139°45'0 0.0
2014-Sep-11 00:33N 35°38' E 139°45'0 0.0
2014-Sep-10 23:33N 35°38' E 139°45'  

Dump ship's entire track history